Time;durP1;ratioP1;P1;durP2;ratioP2;P2;SDS_P1;SDS_P2;PMS_P1;PMS_P2;Temp;Humidity;BMP_temperature;BMP_pressure;BME280_temperature;BME280_humidity;BME280_pressure;Samples;Min_cycle;Max_cycle;Signal;HPM_P1;HPM_P2
2021/11/19 00:00:54;;;;;;;12.63;5.10;;;;;;;;;;4978753;28;20193;-67
2021/11/19 00:03:20;;;;;;;12.10;5.33;;;;;;;;;;4984993;28;20432;-67
2021/11/19 00:05:46;;;;;;;11.70;5.20;;;;;;;;;;4986081;28;20425;-66
2021/11/19 00:08:12;;;;;;;12.07;5.43;;;;;;;;;;4986931;28;20185;-66
2021/11/19 00:10:37;;;;;;;12.53;5.90;;;;;;;;;;4982557;28;20807;-66
2021/11/19 00:13:03;;;;;;;15.10;6.17;;;;;;;;;;4986278;28;20436;-66
2021/11/19 00:15:29;;;;;;;11.53;5.87;;;;;;;;;;4986518;28;20186;-66
2021/11/19 00:17:55;;;;;;;10.67;6.03;;;;;;;;;;4985700;28;20536;-67
2021/11/19 00:20:22;;;;;;;14.27;5.80;;;;;;;;;;4985821;28;21628;-66
2021/11/19 00:22:47;;;;;;;13.90;5.97;;;;;;;;;;4986708;28;20181;-67
2021/11/19 00:25:13;;;;;;;14.93;6.87;;;;;;;;;;4985275;28;20437;-67
2021/11/19 00:27:38;;;;;;;14.10;6.43;;;;;;;;;;4985518;28;20201;-66
2021/11/19 00:30:06;;;;;;;18.83;6.10;;;;;;;;;;4987231;28;20188;-67
2021/11/19 00:32:31;;;;;;;13.03;5.57;;;;;;;;;;4989113;28;20196;-67
2021/11/19 00:34:56;;;;;;;12.60;6.10;;;;;;;;;;4983035;28;20803;-67
2021/11/19 00:37:22;;;;;;;9.70;6.57;;;;;;;;;;4985598;28;20209;-67
2021/11/19 00:39:48;;;;;;;15.77;6.77;;;;;;;;;;4983593;28;20174;-67
2021/11/19 00:42:13;;;;;;;10.90;5.83;;;;;;;;;;4980932;28;20189;-66
2021/11/19 00:44:39;;;;;;;15.33;6.33;;;;;;;;;;4987433;28;20178;-67
2021/11/19 00:47:05;;;;;;;10.70;6.13;;;;;;;;;;4982426;28;20209;-67
2021/11/19 00:49:31;;;;;;;12.77;6.00;;;;;;;;;;4983736;28;20671;-67
2021/11/19 00:51:57;;;;;;;13.33;5.97;;;;;;;;;;4979927;28;21462;-67
2021/11/19 00:54:23;;;;;;;10.53;6.20;;;;;;;;;;4985048;28;21751;-66
2021/11/19 00:56:51;;;;;;;16.20;7.03;;;;;;;;;;4985815;28;21052;-67
2021/11/19 00:59:17;;;;;;;18.37;6.73;;;;;;;;;;4985613;28;20658;-66
2021/11/19 01:01:45;;;;;;;12.43;5.83;;;;;;;;;;4983555;28;20437;-67
2021/11/19 01:04:11;;;;;;;13.30;6.07;;;;;;;;;;4984068;28;20433;-67
2021/11/19 01:06:36;;;;;;;15.60;6.80;;;;;;;;;;4984136;28;20877;-67
2021/11/19 01:09:04;;;;;;;13.03;6.53;;;;;;;;;;4984152;28;20441;-67
2021/11/19 01:11:30;;;;;;;15.20;7.10;;;;;;;;;;4984523;28;20194;-67
2021/11/19 01:13:56;;;;;;;10.13;6.30;;;;;;;;;;4980689;28;20448;-67
2021/11/19 01:16:24;;;;;;;14.40;6.90;;;;;;;;;;4981494;28;20347;-67
2021/11/19 01:18:52;;;;;;;16.90;6.53;;;;;;;;;;4985525;28;20549;-67
2021/11/19 01:21:19;;;;;;;17.77;7.10;;;;;;;;;;4984545;28;20433;-66
2021/11/19 01:23:45;;;;;;;13.93;6.63;;;;;;;;;;4985536;28;20535;-66
2021/11/19 01:26:12;;;;;;;17.03;7.17;;;;;;;;;;4999497;23;20499;-80
2021/11/19 01:28:38;;;;;;;15.10;7.43;;;;;;;;;;4997360;28;20465;-82
2021/11/19 01:31:09;;;;;;;21.50;6.40;;;;;;;;;;4999334;28;20444;-81
2021/11/19 01:33:35;;;;;;;10.67;6.53;;;;;;;;;;4998132;28;20435;-81
2021/11/19 01:36:00;;;;;;;14.83;6.13;;;;;;;;;;4998123;28;20467;-81
2021/11/19 01:38:26;;;;;;;12.30;6.90;;;;;;;;;;4996382;28;20177;-80
2021/11/19 01:40:55;;;;;;;13.70;6.50;;;;;;;;;;4995004;28;20181;-81
2021/11/19 01:43:20;;;;;;;10.13;5.70;;;;;;;;;;5005521;28;20989;-81
2021/11/19 01:45:49;;;;;;;14.27;6.53;;;;;;;;;;5001881;28;20478;-81
2021/11/19 01:48:15;;;;;;;13.90;6.70;;;;;;;;;;4999643;28;20181;-81
2021/11/19 01:50:53;;;;;;;17.10;6.80;;;;;;;;;;5003709;28;20834;-81
2021/11/19 01:53:31;;;;;;;13.37;7.40;;;;;;;;;;4993312;28;20471;-80
2021/11/19 01:56:00;;;;;;;15.73;7.37;;;;;;;;;;4993375;28;20456;-82
2021/11/19 01:58:27;;;;;;;16.67;6.70;;;;;;;;;;4999656;28;20437;-80
2021/11/19 02:00:55;;;;;;;13.30;5.60;;;;;;;;;;4997183;28;20528;-80
2021/11/19 02:03:22;;;;;;;13.93;5.93;;;;;;;;;;4994256;28;20440;-81
2021/11/19 02:05:56;;;;;;;14.20;5.53;;;;;;;;;;4997609;28;20460;-81
2021/11/19 02:08:22;;;;;;;9.13;5.43;;;;;;;;;;4996676;28;22290;-81
2021/11/19 02:10:53;;;;;;;13.33;6.13;;;;;;;;;;5005099;28;20478;-81
2021/11/19 02:13:26;;;;;;;11.93;6.07;;;;;;;;;;4991015;28;20515;-79
2021/11/19 02:15:59;;;;;;;14.20;5.97;;;;;;;;;;4996892;28;20444;-81
2021/11/19 02:18:56;;;;;;;13.70;6.30;;;;;;;;;;4993060;28;20460;-80
2021/11/19 02:21:26;;;;;;;16.63;5.47;;;;;;;;;;4983807;28;20530;-81
2021/11/19 02:24:00;;;;;;;12.50;5.50;;;;;;;;;;4994722;28;20436;-79
2021/11/19 02:26:28;;;;;;;14.20;5.83;;;;;;;;;;4994312;28;20460;-81
2021/11/19 02:28:53;;;;;;;18.70;6.43;;;;;;;;;;4989866;28;20456;-80
2021/11/19 02:31:22;;;;;;;14.97;5.80;;;;;;;;;;4995428;28;20433;-80
2021/11/19 02:33:50;;;;;;;12.30;5.30;;;;;;;;;;4993490;28;20794;-82
2021/11/19 02:36:17;;;;;;;14.87;5.87;;;;;;;;;;4996332;28;20483;-81
2021/11/19 02:38:53;;;;;;;18.77;6.00;;;;;;;;;;4996508;28;20467;-80
2021/11/19 02:41:20;;;;;;;13.30;6.00;;;;;;;;;;4991425;28;20444;-80
2021/11/19 02:43:55;;;;;;;14.50;5.50;;;;;;;;;;4997309;28;20441;-80
2021/11/19 02:46:26;;;;;;;13.23;5.33;;;;;;;;;;4999439;28;20491;-81
2021/11/19 02:48:52;;;;;;;12.80;4.93;;;;;;;;;;4995813;28;20544;-80
2021/11/19 02:51:19;;;;;;;11.10;5.67;;;;;;;;;;4993376;28;20965;-81
2021/11/19 02:53:45;;;;;;;14.40;5.57;;;;;;;;;;4995416;28;20510;-80
2021/11/19 02:56:11;;;;;;;16.27;5.40;;;;;;;;;;4991051;28;20548;-80
2021/11/19 02:58:41;;;;;;;12.13;5.00;;;;;;;;;;5001675;28;20812;-79
2021/11/19 03:01:13;;;;;;;13.63;5.10;;;;;;;;;;5010572;28;20702;-80
2021/11/19 03:03:39;;;;;;;11.83;4.63;;;;;;;;;;5000962;28;20432;-80
2021/11/19 03:06:05;;;;;;;16.17;4.80;;;;;;;;;;5001569;28;20448;-80
2021/11/19 03:08:30;;;;;;;14.43;5.43;;;;;;;;;;4995681;28;20436;-80
2021/11/19 03:10:56;;;;;;;12.60;5.53;;;;;;;;;;4997251;28;20209;-79
2021/11/19 03:13:23;;;;;;;18.17;5.90;;;;;;;;;;4993614;28;20185;-80
2021/11/19 03:15:49;;;;;;;18.20;5.30;;;;;;;;;;4990412;28;20213;-81
2021/11/19 03:18:16;;;;;;;13.37;5.40;;;;;;;;;;5002784;28;20468;-79
2021/11/19 03:20:42;;;;;;;12.17;4.60;;;;;;;;;;4991947;28;20425;-81
2021/11/19 03:23:08;;;;;;;14.00;5.13;;;;;;;;;;4997871;28;20866;-79
2021/11/19 03:25:37;;;;;;;13.43;5.50;;;;;;;;;;4990595;28;20551;-80
2021/11/19 03:28:02;;;;;;;14.73;4.70;;;;;;;;;;4990748;28;20193;-80
2021/11/19 03:30:29;;;;;;;12.77;4.53;;;;;;;;;;4990467;28;20436;-81
2021/11/19 03:32:54;;;;;;;14.90;6.47;;;;;;;;;;4997809;28;20201;-79
2021/11/19 03:35:21;;;;;;;9.50;4.57;;;;;;;;;;4997764;28;20456;-80
2021/11/19 03:37:47;;;;;;;9.90;4.93;;;;;;;;;;4990611;28;20193;-80
2021/11/19 03:40:14;;;;;;;10.17;4.30;;;;;;;;;;4996636;28;20429;-81
2021/11/19 03:42:39;;;;;;;10.30;5.00;;;;;;;;;;5012155;28;21374;-81
2021/11/19 03:45:06;;;;;;;14.73;5.23;;;;;;;;;;4994337;28;20452;-79
2021/11/19 03:47:37;;;;;;;17.30;5.43;;;;;;;;;;4996107;28;20200;-80
2021/11/19 03:50:05;;;;;;;14.10;5.10;;;;;;;;;;4991635;28;20432;-80
2021/11/19 03:52:32;;;;;;;9.70;4.80;;;;;;;;;;4989590;28;20434;-81
2021/11/19 03:54:59;;;;;;;11.50;4.90;;;;;;;;;;4993741;28;20464;-81
2021/11/19 03:57:25;;;;;;;13.37;5.47;;;;;;;;;;4989528;28;20471;-82
2021/11/19 03:59:51;;;;;;;16.50;5.20;;;;;;;;;;4989757;28;20436;-80
2021/11/19 04:02:17;;;;;;;9.00;4.60;;;;;;;;;;4984287;28;20185;-79
2021/11/19 04:04:43;;;;;;;12.53;4.93;;;;;;;;;;4989458;28;21489;-78
2021/11/19 04:07:11;;;;;;;15.73;5.60;;;;;;;;;;4987430;28;20803;-78
2021/11/19 04:09:36;;;;;;;17.77;5.97;;;;;;;;;;4994032;28;20436;-79
2021/11/19 04:12:02;;;;;;;15.43;5.83;;;;;;;;;;4993031;28;20436;-79
2021/11/19 04:14:28;;;;;;;16.20;5.97;;;;;;;;;;4992353;28;20199;-80
2021/11/19 04:16:56;;;;;;;11.57;5.27;;;;;;;;;;4996306;28;20990;-80
2021/11/19 04:19:22;;;;;;;15.37;6.30;;;;;;;;;;5002406;28;20178;-79
2021/11/19 04:21:48;;;;;;;12.77;5.87;;;;;;;;;;4995854;28;20802;-79
2021/11/19 04:24:15;;;;;;;12.70;6.30;;;;;;;;;;5000107;28;20438;-80
2021/11/19 04:26:40;;;;;;;14.70;5.20;;;;;;;;;;4990461;28;20551;-80
2021/11/19 04:29:06;;;;;;;15.60;6.10;;;;;;;;;;4997815;28;20520;-80
2021/11/19 04:31:32;;;;;;;16.73;6.00;;;;;;;;;;4999546;28;20190;-80
2021/11/19 04:33:58;;;;;;;13.87;6.50;;;;;;;;;;5002367;28;20454;-80
2021/11/19 04:36:24;;;;;;;14.70;6.23;;;;;;;;;;4994283;28;20472;-79
2021/11/19 04:38:49;;;;;;;15.20;6.77;;;;;;;;;;4996661;28;20463;-78
2021/11/19 04:41:15;;;;;;;11.33;5.50;;;;;;;;;;4994598;28;20223;-81
2021/11/19 04:43:40;;;;;;;11.07;5.90;;;;;;;;;;5001005;28;20177;-79
2021/11/19 04:46:06;;;;;;;18.63;6.33;;;;;;;;;;4989749;28;20479;-80
2021/11/19 04:48:34;;;;;;;15.33;6.40;;;;;;;;;;4999975;28;20193;-80
2021/11/19 04:51:00;;;;;;;13.50;5.77;;;;;;;;;;4998703;28;20433;-81
2021/11/19 04:53:26;;;;;;;15.57;6.60;;;;;;;;;;5000540;28;20976;-82
2021/11/19 04:55:52;;;;;;;14.30;5.40;;;;;;;;;;4997196;28;20460;-80
2021/11/19 04:58:17;;;;;;;11.27;6.50;;;;;;;;;;4996076;28;20750;-80
2021/11/19 05:00:44;;;;;;;14.10;5.63;;;;;;;;;;5004032;28;20284;-80
2021/11/19 05:03:10;;;;;;;10.60;5.53;;;;;;;;;;4997002;28;20928;-79
2021/11/19 05:05:36;;;;;;;16.77;6.53;;;;;;;;;;4993903;28;20449;-79
2021/11/19 05:08:03;;;;;;;15.80;5.70;;;;;;;;;;4996754;28;20189;-81
2021/11/19 05:10:28;;;;;;;13.33;5.50;;;;;;;;;;4995993;28;20470;-80
2021/11/19 05:12:56;;;;;;;13.87;5.50;;;;;;;;;;4994197;28;21459;-81
2021/11/19 05:15:22;;;;;;;11.43;5.60;;;;;;;;;;4992674;28;20228;-82
2021/11/19 05:17:48;;;;;;;14.67;6.20;;;;;;;;;;4996977;28;20471;-80
2021/11/19 05:20:15;;;;;;;19.33;6.03;;;;;;;;;;4996043;28;20494;-81
2021/11/19 05:22:41;;;;;;;17.27;5.60;;;;;;;;;;4999715;28;20194;-80
2021/11/19 05:25:08;;;;;;;15.17;6.70;;;;;;;;;;4998932;28;20478;-78
2021/11/19 05:27:33;;;;;;;12.87;5.73;;;;;;;;;;4990702;28;20174;-80
2021/11/19 05:29:58;;;;;;;14.80;6.47;;;;;;;;;;4991498;28;20479;-80
2021/11/19 05:32:23;;;;;;;14.43;6.07;;;;;;;;;;4993438;28;20200;-79
2021/11/19 05:34:49;;;;;;;11.67;4.70;;;;;;;;;;4998586;28;20185;-81
2021/11/19 05:37:14;;;;;;;10.37;5.07;;;;;;;;;;4994973;28;20208;-80
2021/11/19 05:39:39;;;;;;;13.27;5.33;;;;;;;;;;5003126;28;20205;-80
2021/11/19 05:42:05;;;;;;;12.57;6.53;;;;;;;;;;4994560;28;20184;-81
2021/11/19 05:44:32;;;;;;;11.60;5.00;;;;;;;;;;4997245;28;20186;-81
2021/11/19 05:46:58;;;;;;;9.77;5.60;;;;;;;;;;4995278;28;20186;-80
2021/11/19 05:49:25;;;;;;;11.77;5.40;;;;;;;;;;4995526;28;20432;-79
2021/11/19 05:51:52;;;;;;;16.67;6.10;;;;;;;;;;4993369;28;20516;-79
2021/11/19 05:54:19;;;;;;;11.60;5.43;;;;;;;;;;4992742;28;20527;-79
2021/11/19 05:56:44;;;;;;;11.00;6.00;;;;;;;;;;4988223;28;21016;-79
2021/11/19 05:59:10;;;;;;;12.10;5.00;;;;;;;;;;4996495;28;20440;-79
2021/11/19 06:01:35;;;;;;;13.23;6.30;;;;;;;;;;4986868;28;20280;-79
2021/11/19 06:04:01;;;;;;;12.57;5.67;;;;;;;;;;4993774;28;20182;-80
2021/11/19 06:06:26;;;;;;;13.00;5.47;;;;;;;;;;4996526;28;20675;-80
2021/11/19 06:08:51;;;;;;;15.70;6.40;;;;;;;;;;4994355;28;20190;-81
2021/11/19 06:11:21;;;;;;;17.67;6.97;;;;;;;;;;4990520;28;20324;-81
2021/11/19 06:14:07;;;;;;;13.83;5.73;;;;;;;;;;4999088;28;20196;-79
2021/11/19 06:16:36;;;;;;;13.50;6.37;;;;;;;;;;4989243;28;21053;-80
2021/11/19 06:19:04;;;;;;;14.70;6.67;;;;;;;;;;4965809;28;21298;-77
2021/11/19 06:21:32;;;;;;;13.07;6.03;;;;;;;;;;4988371;28;20853;-77
2021/11/19 06:23:58;;;;;;;12.60;5.60;;;;;;;;;;4990516;28;20767;-76
2021/11/19 06:26:25;;;;;;;14.07;6.20;;;;;;;;;;4990675;28;20490;-78
2021/11/19 06:28:51;;;;;;;12.23;6.10;;;;;;;;;;4989974;28;20511;-78
2021/11/19 06:31:17;;;;;;;11.57;6.10;;;;;;;;;;4983842;28;20432;-80
2021/11/19 06:33:43;;;;;;;10.53;6.33;;;;;;;;;;4988912;28;20453;-79
2021/11/19 06:36:08;;;;;;;11.17;5.50;;;;;;;;;;4988380;28;20535;-80
2021/11/19 06:38:34;;;;;;;12.10;5.27;;;;;;;;;;4990055;28;20643;-80
2021/11/19 06:40:59;;;;;;;15.70;5.87;;;;;;;;;;4988138;28;21121;-80
2021/11/19 06:43:25;;;;;;;14.33;5.60;;;;;;;;;;4990469;28;20178;-79
2021/11/19 06:45:50;;;;;;;15.33;6.07;;;;;;;;;;4988543;28;20686;-77
2021/11/19 06:48:16;;;;;;;13.47;5.70;;;;;;;;;;4991329;28;20188;-79
2021/11/19 06:50:43;;;;;;;15.53;5.90;;;;;;;;;;4992500;28;20189;-77
2021/11/19 06:53:09;;;;;;;15.47;6.27;;;;;;;;;;4989840;28;20184;-77
2021/11/19 06:55:34;;;;;;;15.93;6.10;;;;;;;;;;4994074;28;21501;-76
2021/11/19 06:57:59;;;;;;;16.13;6.53;;;;;;;;;;4993484;28;20212;-77
2021/11/19 07:00:27;;;;;;;13.93;4.90;;;;;;;;;;4993820;28;20188;-77
2021/11/19 07:02:53;;;;;;;11.97;6.20;;;;;;;;;;4994112;28;20203;-78
2021/11/19 07:05:18;;;;;;;15.43;6.90;;;;;;;;;;4994291;28;20445;-78
2021/11/19 07:07:44;;;;;;;17.30;6.63;;;;;;;;;;4988069;28;20182;-78
2021/11/19 07:10:09;;;;;;;14.03;5.30;;;;;;;;;;4992716;28;20189;-79
2021/11/19 07:12:35;;;;;;;14.10;5.57;;;;;;;;;;4995741;28;20231;-82
2021/11/19 07:15:01;;;;;;;9.77;5.37;;;;;;;;;;5010312;28;20694;-80
2021/11/19 07:17:26;;;;;;;16.13;5.80;;;;;;;;;;4988950;28;20209;-77
2021/11/19 07:19:51;;;;;;;12.30;5.27;;;;;;;;;;4998353;28;20653;-78
2021/11/19 07:22:17;;;;;;;16.07;5.50;;;;;;;;;;4993057;28;20689;-78
2021/11/19 07:24:42;;;;;;;9.50;5.23;;;;;;;;;;4995355;28;20185;-78
2021/11/19 07:27:07;;;;;;;14.83;4.70;;;;;;;;;;4993203;28;20196;-78
2021/11/19 07:29:33;;;;;;;14.90;4.77;;;;;;;;;;4991525;28;20690;-78
2021/11/19 07:31:58;;;;;;;11.97;4.93;;;;;;;;;;4991678;28;20299;-78
2021/11/19 07:34:24;;;;;;;12.50;4.80;;;;;;;;;;4991432;28;20182;-78
2021/11/19 07:36:49;;;;;;;14.83;4.80;;;;;;;;;;4993127;28;20209;-78
2021/11/19 07:39:15;;;;;;;12.03;4.57;;;;;;;;;;4983215;28;20185;-81
2021/11/19 07:41:41;;;;;;;12.00;4.20;;;;;;;;;;4986644;28;20182;-78
2021/11/19 07:44:06;;;;;;;11.17;3.93;;;;;;;;;;4987986;28;20185;-78
2021/11/19 07:46:31;;;;;;;15.00;4.60;;;;;;;;;;4988672;28;20236;-81
2021/11/19 07:48:57;;;;;;;14.27;4.03;;;;;;;;;;4990279;28;20587;-78
2021/11/19 07:51:25;;;;;;;13.20;4.03;;;;;;;;;;4988158;28;20200;-75
2021/11/19 07:53:51;;;;;;;10.40;4.53;;;;;;;;;;4995962;28;20268;-79
2021/11/19 07:56:17;;;;;;;12.40;3.77;;;;;;;;;;4992033;28;20465;-78
2021/11/19 07:58:43;;;;;;;10.37;3.80;;;;;;;;;;5009175;28;20939;-78
2021/11/19 08:01:08;;;;;;;11.13;3.90;;;;;;;;;;4994567;28;20451;-79
2021/11/19 08:03:34;;;;;;;14.20;4.27;;;;;;;;;;4993499;28;20648;-79
2021/11/19 08:06:01;;;;;;;18.67;4.07;;;;;;;;;;4991490;28;20716;-78
2021/11/19 08:08:27;;;;;;;12.73;3.77;;;;;;;;;;4995484;28;20186;-79
2021/11/19 08:10:53;;;;;;;8.67;3.70;;;;;;;;;;4991750;28;20562;-79
2021/11/19 08:13:18;;;;;;;14.60;4.43;;;;;;;;;;4991935;28;20440;-79
2021/11/19 08:15:44;;;;;;;8.27;3.30;;;;;;;;;;4993475;28;20778;-79
2021/11/19 08:18:20;;;;;;;10.63;3.67;;;;;;;;;;4993421;28;20255;-78
2021/11/19 08:20:46;;;;;;;9.83;3.47;;;;;;;;;;5003019;28;20195;-77
2021/11/19 08:23:20;;;;;;;9.57;3.60;;;;;;;;;;4991870;28;20451;-82
2021/11/19 08:25:46;;;;;;;10.43;3.57;;;;;;;;;;4996826;28;20469;-76
2021/11/19 08:28:11;;;;;;;7.50;3.60;;;;;;;;;;4997899;28;20451;-80
2021/11/19 08:30:38;;;;;;;11.43;2.90;;;;;;;;;;4996369;28;20489;-82
2021/11/19 08:33:05;;;;;;;10.87;3.33;;;;;;;;;;4994519;28;20197;-77
2021/11/19 08:35:31;;;;;;;15.37;3.63;;;;;;;;;;4989689;28;20968;-78
2021/11/19 08:37:56;;;;;;;13.10;4.47;;;;;;;;;;4996420;28;20472;-78
2021/11/19 08:40:23;;;;;;;11.43;3.03;;;;;;;;;;4994269;28;20185;-79
2021/11/19 08:42:49;;;;;;;8.40;3.00;;;;;;;;;;4990061;28;20680;-79
2021/11/19 08:45:17;;;;;;;8.87;4.10;;;;;;;;;;4991486;28;20456;-79
2021/11/19 08:47:43;;;;;;;12.33;3.20;;;;;;;;;;4992094;28;20189;-79
2021/11/19 08:50:09;;;;;;;8.17;2.60;;;;;;;;;;4993951;28;20436;-78
2021/11/19 08:52:35;;;;;;;9.10;3.50;;;;;;;;;;4992001;28;20209;-77
2021/11/19 08:55:00;;;;;;;14.13;3.60;;;;;;;;;;4988273;28;20548;-83
2021/11/19 08:57:26;;;;;;;9.97;2.70;;;;;;;;;;4986556;28;20550;-81
2021/11/19 08:59:52;;;;;;;9.23;2.80;;;;;;;;;;4990358;28;20256;-79
2021/11/19 09:02:19;;;;;;;9.00;3.07;;;;;;;;;;4981590;28;20364;-79
2021/11/19 09:04:45;;;;;;;15.23;3.50;;;;;;;;;;4979953;28;20439;-83
2021/11/19 09:07:10;;;;;;;10.63;3.17;;;;;;;;;;4987482;28;20448;-82
2021/11/19 09:09:36;;;;;;;10.70;3.43;;;;;;;;;;4994177;28;20185;-81
2021/11/19 09:12:01;;;;;;;7.73;2.67;;;;;;;;;;4994434;28;20240;-78
2021/11/19 09:14:27;;;;;;;8.67;3.40;;;;;;;;;;4987542;28;20477;-79
2021/11/19 09:16:59;;;;;;;13.70;2.90;;;;;;;;;;4992887;28;20684;-79
2021/11/19 09:19:31;;;;;;;9.70;2.80;;;;;;;;;;4988659;28;20276;-79
2021/11/19 09:22:00;;;;;;;10.70;2.93;;;;;;;;;;4990333;28;20937;-77
2021/11/19 09:24:28;;;;;;;10.73;3.07;;;;;;;;;;4991489;28;20444;-78
2021/11/19 09:26:58;;;;;;;15.40;2.93;;;;;;;;;;4987966;28;20542;-76
2021/11/19 09:29:29;;;;;;;8.03;2.83;;;;;;;;;;4988336;28;20555;-77
2021/11/19 09:31:54;;;;;;;11.53;2.40;;;;;;;;;;4996693;28;20899;-77
2021/11/19 09:34:21;;;;;;;13.43;2.80;;;;;;;;;;4991533;28;20536;-80
2021/11/19 09:36:46;;;;;;;8.73;3.00;;;;;;;;;;4993866;28;20645;-80
2021/11/19 09:39:15;;;;;;;11.07;3.10;;;;;;;;;;4989546;28;20428;-77
2021/11/19 09:41:43;;;;;;;15.27;3.10;;;;;;;;;;4992705;28;20178;-77
2021/11/19 09:44:15;;;;;;;11.20;3.30;;;;;;;;;;4986806;28;20789;-78
2021/11/19 09:46:52;;;;;;;14.50;3.13;;;;;;;;;;4998754;28;20543;-80
2021/11/19 09:49:44;;;;;;;14.83;3.13;;;;;;;;;;4994910;28;22986;-76
2021/11/19 09:52:09;;;;;;;9.90;2.80;;;;;;;;;;4993950;28;20436;-77
2021/11/19 09:54:53;;;;;;;12.50;3.07;;;;;;;;;;4991488;28;20440;-77
2021/11/19 09:57:28;;;;;;;11.30;2.83;;;;;;;;;;4991537;28;20208;-76
2021/11/19 10:00:12;;;;;;;11.20;3.53;;;;;;;;;;4988804;28;20845;-78
2021/11/19 10:02:43;;;;;;;12.90;2.97;;;;;;;;;;4987310;28;20572;-75
2021/11/19 10:05:24;;;;;;;12.00;2.97;;;;;;;;;;4986124;28;20519;-77
2021/11/19 10:08:08;;;;;;;15.53;3.43;;;;;;;;;;4985784;28;20941;-77
2021/11/19 10:10:39;;;;;;;12.33;3.10;;;;;;;;;;4990676;28;20444;-77
2021/11/19 10:13:16;;;;;;;13.03;3.40;;;;;;;;;;4987833;28;20443;-75
2021/11/19 10:16:00;;;;;;;14.40;3.30;;;;;;;;;;4988674;28;20483;-79
2021/11/19 10:18:51;;;;;;;8.17;2.90;;;;;;;;;;4992559;28;20476;-80
2021/11/19 10:21:19;;;;;;;11.47;3.40;;;;;;;;;;4988417;28;20444;-79
2021/11/19 10:23:47;;;;;;;12.33;3.30;;;;;;;;;;4989571;28;20471;-81
2021/11/19 10:26:18;;;;;;;11.30;3.23;;;;;;;;;;4989826;28;20478;-77
2021/11/19 10:28:51;;;;;;;7.83;3.20;;;;;;;;;;4993206;28;20539;-79
2021/11/19 10:31:18;;;;;;;11.27;2.83;;;;;;;;;;4993735;28;20428;-80
2021/11/19 10:33:43;;;;;;;15.83;2.90;;;;;;;;;;4995336;28;20940;-78
2021/11/19 10:36:11;;;;;;;15.57;3.87;;;;;;;;;;4990417;28;20499;-81
2021/11/19 10:38:56;;;;;;;16.93;3.67;;;;;;;;;;4988689;28;20209;-77
2021/11/19 10:41:27;;;;;;;8.33;2.90;;;;;;;;;;4990949;28;20442;-77
2021/11/19 10:44:05;;;;;;;16.90;3.50;;;;;;;;;;4993510;28;20424;-79
2021/11/19 10:46:49;;;;;;;12.30;3.30;;;;;;;;;;4980229;28;20455;-78
2021/11/19 10:49:15;;;;;;;13.63;2.67;;;;;;;;;;4987483;28;21030;-77
2021/11/19 10:51:40;;;;;;;16.20;2.83;;;;;;;;;;4994117;28;20434;-76
2021/11/19 10:54:29;;;;;;;12.13;3.60;;;;;;;;;;4994912;28;20195;-78
2021/11/19 10:56:57;;;;;;;11.93;3.30;;;;;;;;;;4991723;28;20785;-76
2021/11/19 10:59:23;;;;;;;9.67;2.30;;;;;;;;;;4994423;28;20515;-77
2021/11/19 11:01:57;;;;;;;9.33;2.27;;;;;;;;;;4991441;28;20972;-81
2021/11/19 11:04:30;;;;;;;9.63;3.00;;;;;;;;;;4989076;28;20917;-75
2021/11/19 11:07:08;;;;;;;9.03;2.20;;;;;;;;;;4987497;28;20455;-76
2021/11/19 11:09:40;;;;;;;8.53;2.13;;;;;;;;;;4990872;28;20429;-75
2021/11/19 11:12:14;;;;;;;10.40;2.93;;;;;;;;;;4985382;28;20814;-76
2021/11/19 11:14:42;;;;;;;7.60;2.30;;;;;;;;;;4991777;28;20432;-76
2021/11/19 11:17:22;;;;;;;9.57;2.60;;;;;;;;;;4992448;28;20471;-75
2021/11/19 11:19:48;;;;;;;6.67;2.20;;;;;;;;;;5006354;28;21820;-75
2021/11/19 11:22:16;;;;;;;10.63;2.30;;;;;;;;;;4992135;28;20436;-76
2021/11/19 11:24:49;;;;;;;16.43;3.23;;;;;;;;;;5006429;28;20438;-76
2021/11/19 11:27:32;;;;;;;7.83;1.90;;;;;;;;;;4987593;28;20425;-76
2021/11/19 11:30:04;;;;;;;9.60;2.40;;;;;;;;;;4991839;28;20411;-77
2021/11/19 11:32:29;;;;;;;9.17;2.73;;;;;;;;;;4993345;28;20531;-78
2021/11/19 11:34:54;;;;;;;11.73;2.70;;;;;;;;;;4990961;28;20479;-77
2021/11/19 11:37:26;;;;;;;8.10;2.20;;;;;;;;;;4991220;28;20198;-78
2021/11/19 11:39:55;;;;;;;7.53;1.77;;;;;;;;;;4996445;28;20620;-77
2021/11/19 11:42:26;;;;;;;11.67;2.70;;;;;;;;;;4989838;28;20946;-77
2021/11/19 11:44:53;;;;;;;15.83;2.17;;;;;;;;;;4981406;28;20434;-78
2021/11/19 11:47:30;;;;;;;6.63;2.20;;;;;;;;;;4993654;28;20440;-77
2021/11/19 11:49:57;;;;;;;7.87;2.30;;;;;;;;;;4991134;28;20427;-79
2021/11/19 11:52:38;;;;;;;10.23;2.97;;;;;;;;;;4997015;28;20436;-80
2021/11/19 11:55:12;;;;;;;9.77;1.90;;;;;;;;;;4991479;28;21250;-78
2021/11/19 11:57:43;;;;;;;7.80;2.00;;;;;;;;;;4989995;28;20489;-78
2021/11/19 12:00:27;;;;;;;8.27;2.00;;;;;;;;;;4991843;28;20425;-77
2021/11/19 12:02:52;;;;;;;7.47;2.37;;;;;;;;;;4992706;28;20427;-79
2021/11/19 12:05:27;;;;;;;7.07;2.03;;;;;;;;;;4990433;28;21099;-79
2021/11/19 12:07:55;;;;;;;10.20;2.57;;;;;;;;;;4991613;28;20666;-76
2021/11/19 12:10:31;;;;;;;6.67;1.90;;;;;;;;;;4988875;28;20431;-78
2021/11/19 12:13:03;;;;;;;9.03;2.37;;;;;;;;;;4986961;28;20438;-78
2021/11/19 12:15:46;;;;;;;10.00;2.30;;;;;;;;;;4980644;28;20462;-77
2021/11/19 12:18:29;;;;;;;12.63;2.50;;;;;;;;;;4986373;28;20452;-78
2021/11/19 12:20:58;;;;;;;8.10;2.10;;;;;;;;;;4983449;28;20536;-78
2021/11/19 12:23:41;;;;;;;10.10;1.57;;;;;;;;;;4980503;28;20432;-77
2021/11/19 12:26:07;;;;;;;8.97;2.33;;;;;;;;;;4989427;28;20525;-76
2021/11/19 12:28:36;;;;;;;7.47;2.00;;;;;;;;;;4986630;28;20452;-76
2021/11/19 12:31:10;;;;;;;9.80;2.63;;;;;;;;;;4988706;28;20277;-76
2021/11/19 12:33:37;;;;;;;10.30;2.23;;;;;;;;;;4989807;28;20445;-77
2021/11/19 12:36:21;;;;;;;12.87;2.50;;;;;;;;;;4987510;28;20467;-77
2021/11/19 12:38:49;;;;;;;5.50;1.90;;;;;;;;;;4988162;28;20467;-76
2021/11/19 12:41:23;;;;;;;9.23;2.67;;;;;;;;;;4990972;28;20429;-77
2021/11/19 12:44:07;;;;;;;11.77;2.90;;;;;;;;;;4992561;28;20956;-78
2021/11/19 12:46:38;;;;;;;8.87;2.10;;;;;;;;;;4988992;28;20460;-79
2021/11/19 12:49:07;;;;;;;9.90;2.27;;;;;;;;;;4991009;28;20542;-75
2021/11/19 12:51:49;;;;;;;10.33;2.53;;;;;;;;;;4989694;28;20429;-76
2021/11/19 12:54:34;;;;;;;10.70;2.00;;;;;;;;;;4992656;28;20441;-76
2021/11/19 12:57:19;;;;;;;8.47;1.90;;;;;;;;;;4993427;28;20578;-76
2021/11/19 12:59:50;;;;;;;9.70;2.33;;;;;;;;;;4995988;28;20433;-77
2021/11/19 13:02:18;;;;;;;6.50;1.77;;;;;;;;;;4992461;28;20435;-78
2021/11/19 13:04:52;;;;;;;10.50;2.10;;;;;;;;;;4990841;28;20471;-77
2021/11/19 13:07:36;;;;;;;15.30;2.57;;;;;;;;;;4993315;28;20451;-78
2021/11/19 13:10:22;;;;;;;5.50;1.90;;;;;;;;;;4992182;28;20432;-78
2021/11/19 13:13:02;;;;;;;8.77;2.63;;;;;;;;;;4986535;28;20451;-77
2021/11/19 13:15:47;;;;;;;7.87;2.07;;;;;;;;;;4992413;28;20799;-78
2021/11/19 13:18:15;;;;;;;12.83;2.70;;;;;;;;;;4985186;28;21626;-77
2021/11/19 13:20:43;;;;;;;8.57;2.27;;;;;;;;;;4993835;28;20429;-78
2021/11/19 13:23:27;;;;;;;8.17;1.87;;;;;;;;;;4992491;28;20436;-80
2021/11/19 13:25:52;;;;;;;12.70;2.23;;;;;;;;;;4991450;28;20468;-77
2021/11/19 13:28:36;;;;;;;11.47;2.70;;;;;;;;;;5000651;28;21005;-77
2021/11/19 13:31:23;;;;;;;12.33;2.90;;;;;;;;;;4994959;28;20179;-78
2021/11/19 13:34:01;;;;;;;17.27;2.90;;;;;;;;;;4991919;28;20781;-77
2021/11/19 13:36:33;;;;;;;13.80;2.90;;;;;;;;;;4993378;28;20456;-77
2021/11/19 13:39:21;;;;;;;11.53;1.97;;;;;;;;;;4995307;28;20527;-76
2021/11/19 13:42:06;;;;;;;11.27;2.77;;;;;;;;;;4994279;28;20462;-76
2021/11/19 13:44:51;;;;;;;6.33;2.30;;;;;;;;;;4997244;28;20487;-77
2021/11/19 13:47:35;;;;;;;9.03;2.13;;;;;;;;;;4993154;28;20977;-76
2021/11/19 13:50:20;;;;;;;12.13;2.80;;;;;;;;;;4993707;28;20443;-77
2021/11/19 13:52:52;;;;;;;7.90;2.03;;;;;;;;;;4994583;28;20427;-77
2021/11/19 13:55:27;;;;;;;11.63;2.93;;;;;;;;;;4994330;28;20443;-77
2021/11/19 13:57:54;;;;;;;11.33;2.23;;;;;;;;;;4994288;28;22175;-77
2021/11/19 14:00:34;;;;;;;14.93;2.40;;;;;;;;;;4995063;28;20931;-77
2021/11/19 14:03:00;;;;;;;13.70;3.30;;;;;;;;;;4989486;28;20502;-77
2021/11/19 14:05:27;;;;;;;12.80;2.90;;;;;;;;;;4997184;28;20982;-77
2021/11/19 14:08:00;;;;;;;7.90;1.90;;;;;;;;;;4992764;28;20182;-77
2021/11/19 14:10:25;;;;;;;16.33;2.90;;;;;;;;;;4989166;28;21331;-77
2021/11/19 14:12:52;;;;;;;13.03;2.70;;;;;;;;;;4994055;28;20433;-77
2021/11/19 14:15:25;;;;;;;8.07;2.47;;;;;;;;;;4995548;28;20687;-77
2021/11/19 14:17:53;;;;;;;12.60;2.27;;;;;;;;;;4993770;28;20468;-78
2021/11/19 14:23:13;;;;;;;12.13;3.23;;;;;;;;;;4987123;28;20415;-76
2021/11/19 14:25:40;;;;;;;13.47;2.17;;;;;;;;;;4989896;28;20522;-76
2021/11/19 14:28:11;;;;;;;11.83;2.70;;;;;;;;;;4991406;28;20445;-76
2021/11/19 14:30:39;;;;;;;14.43;3.10;;;;;;;;;;4992469;28;20985;-76
2021/11/19 14:33:06;;;;;;;12.37;2.90;;;;;;;;;;4988902;28;20515;-76
2021/11/19 14:35:40;;;;;;;9.30;2.27;;;;;;;;;;4992390;28;20463;-76
2021/11/19 14:38:23;;;;;;;10.40;2.43;;;;;;;;;;4991464;28;20464;-76
2021/11/19 14:40:49;;;;;;;16.30;3.30;;;;;;;;;;4992036;28;20915;-75
2021/11/19 14:43:16;;;;;;;14.23;2.90;;;;;;;;;;4990567;28;20439;-76
2021/11/19 14:45:45;;;;;;;7.87;2.47;;;;;;;;;;4991946;28;20209;-78
2021/11/19 14:48:18;;;;;;;8.37;2.27;;;;;;;;;;4992643;28;20443;-78